Time;durP1;ratioP1;P1;durP2;ratioP2;P2;SDS_P1;SDS_P2;PMS_P1;PMS_P2;Temp;Humidity;BMP_temperature;BMP_pressure;BME280_temperature;BME280_humidity;BME280_pressure;Samples;Min_cycle;Max_cycle;Signal;HPM_P1;HPM_P2
2022/10/18 00:01:08;;;;;;;8.63;3.10;;;15.40;89.90;;;;;;5087599;28;20134;-59
2022/10/18 00:03:36;;;;;;;6.90;3.25;;;15.40;89.80;;;;;;5095280;28;20478;-60
2022/10/18 00:06:04;;;;;;;6.93;3.28;;;15.50;89.80;;;;;;5100286;27;20532;-60
2022/10/18 00:08:38;;;;;;;7.18;3.75;;;15.40;89.90;;;;;;5093210;28;20401;-60
2022/10/18 00:11:09;;;;;;;6.75;4.00;;;15.40;89.90;;;;;;5091781;28;20981;-61
2022/10/18 00:13:36;;;;;;;8.23;3.30;;;15.40;90.00;;;;;;5093415;28;20062;-60
2022/10/18 00:16:10;;;;;;;5.28;3.25;;;15.30;90.00;;;;;;5092436;28;20069;-60
2022/10/18 00:18:37;;;;;;;6.25;3.38;;;15.30;90.00;;;;;;5094789;28;20067;-60
2022/10/18 00:21:07;;;;;;;6.72;3.45;;;15.30;90.00;;;;;;5094999;28;20076;-60
2022/10/18 00:23:35;;;;;;;7.30;3.47;;;15.30;90.00;;;;;;5086397;28;20066;-60
2022/10/18 00:26:04;;;;;;;5.95;3.20;;;15.30;90.00;;;;;;5089377;28;20110;-59
2022/10/18 00:28:31;;;;;;;11.48;3.30;;;15.30;90.00;;;;;;5085948;28;20051;-60
2022/10/18 00:31:08;;;;;;;7.78;2.95;;;15.30;90.00;;;;;;5090408;28;20048;-60
2022/10/18 00:33:37;;;;;;;8.50;2.90;;;15.30;90.00;;;;;;5093918;28;20063;-60
2022/10/18 00:36:04;;;;;;;7.22;3.25;;;15.30;90.10;;;;;;5092416;28;20051;-61
2022/10/18 00:38:31;;;;;;;6.82;3.45;;;15.30;90.10;;;;;;5092518;28;20047;-61
2022/10/18 00:40:58;;;;;;;5.78;3.30;;;15.30;90.10;;;;;;5094316;28;20051;-61
2022/10/18 00:43:25;;;;;;;8.00;3.00;;;15.30;90.10;;;;;;5094421;28;20040;-59
2022/10/18 00:45:52;;;;;;;6.53;3.47;;;15.30;89.90;;;;;;5093871;28;20093;-61
2022/10/18 00:48:26;;;;;;;6.95;3.38;;;15.40;89.90;;;;;;5093636;28;20160;-60
2022/10/18 00:50:54;;;;;;;10.93;3.15;;;15.30;90.00;;;;;;5091559;28;20102;-60
2022/10/18 00:53:23;;;;;;;5.57;2.92;;;15.30;89.90;;;;;;5093938;28;20039;-60
2022/10/18 00:55:51;;;;;;;8.35;3.40;;;15.30;90.00;;;;;;5093209;28;20095;-60
2022/10/18 00:58:19;;;;;;;8.05;3.15;;;15.30;90.10;;;;;;5096449;28;20047;-60
2022/10/18 01:00:46;;;;;;;8.82;3.45;;;15.30;90.10;;;;;;5094225;28;20054;-61
2022/10/18 01:03:19;;;;;;;6.78;3.22;;;15.30;90.20;;;;;;5094547;28;20052;-61
2022/10/18 01:05:48;;;;;;;7.15;3.05;;;15.30;90.20;;;;;;5094608;28;20044;-62
2022/10/18 01:08:50;;;;;;;8.75;3.30;;;15.30;90.20;;;;;;5095520;28;20048;-60
2022/10/18 01:11:31;;;;;;;6.55;3.17;;;15.30;90.30;;;;;;5091035;28;20051;-60
2022/10/18 01:14:07;;;;;;;7.88;3.17;;;15.30;90.30;;;;;;5094736;28;20068;-60
2022/10/18 01:16:39;;;;;;;7.25;3.67;;;15.30;90.30;;;;;;5090595;28;20175;-61
2022/10/18 01:19:23;;;;;;;6.28;3.08;;;15.30;90.10;;;;;;5092149;28;20051;-60
2022/10/18 01:21:57;;;;;;;10.25;3.60;;;15.30;90.10;;;;;;5097204;28;20040;-59
2022/10/18 01:24:52;;;;;;;5.85;2.97;;;15.40;89.80;;;;;;5087196;28;20516;-60
2022/10/18 01:27:44;;;;;;;6.70;3.25;;;15.40;89.90;;;;;;5088443;28;20090;-60
2022/10/18 01:30:40;;;;;;;9.50;2.97;;;15.40;89.70;;;;;;5088913;28;20296;-61
2022/10/18 01:33:19;;;;;;;8.00;3.35;;;15.30;90.00;;;;;;5093058;28;20146;-59
2022/10/18 01:35:52;;;;;;;6.70;3.22;;;15.30;90.10;;;;;;5088035;28;20059;-60
2022/10/18 01:38:22;;;;;;;11.77;3.28;;;15.30;90.30;;;;;;5091600;28;20051;-60
2022/10/18 01:40:51;;;;;;;6.68;3.13;;;15.30;90.30;;;;;;5098298;28;20043;-60
2022/10/18 01:43:20;;;;;;;5.40;2.83;;;15.30;90.30;;;;;;5093719;28;20066;-59
2022/10/18 01:45:49;;;;;;;8.60;3.05;;;15.30;90.30;;;;;;5098792;28;20056;-60
2022/10/18 01:48:17;;;;;;;5.47;2.73;;;15.30;90.30;;;;;;5096305;28;20050;-60
2022/10/18 01:50:44;;;;;;;8.10;2.92;;;15.30;90.10;;;;;;5097903;27;20059;-60
2022/10/18 01:53:30;;;;;;;7.32;3.28;;;15.30;90.20;;;;;;5097575;28;21023;-60
2022/10/18 01:56:20;;;;;;;8.77;2.97;;;15.30;90.20;;;;;;5094587;28;20048;-59
2022/10/18 01:58:56;;;;;;;6.57;2.88;;;15.40;90.30;;;;;;5095472;28;20424;-60
2022/10/18 02:01:39;;;;;;;6.40;3.05;;;15.30;90.30;;;;;;5097671;28;20044;-62
2022/10/18 02:04:16;;;;;;;5.60;2.88;;;15.40;90.40;;;;;;5098869;28;20039;-61
2022/10/18 02:06:45;;;;;;;5.90;3.00;;;15.30;90.50;;;;;;5097596;27;20063;-60
2022/10/18 02:09:18;;;;;;;7.75;3.50;;;15.30;90.50;;;;;;5096390;28;20048;-60
2022/10/18 02:11:48;;;;;;;6.63;3.28;;;15.30;90.50;;;;;;5098184;28;20051;-61
2022/10/18 02:14:16;;;;;;;;;;;15.30;90.40;;;;;;5118303;28;20067;-60
2022/10/18 02:16:47;;;;;;;6.50;3.03;;;15.30;90.20;;;;;;5115641;28;19920;-60
2022/10/18 02:19:19;;;;;;;7.75;3.55;;;15.40;90.00;;;;;;5096025;28;20052;-60
2022/10/18 02:21:50;;;;;;;5.55;3.00;;;15.30;90.00;;;;;;5097135;28;20040;-62
2022/10/18 02:24:19;;;;;;;6.65;4.00;;;15.40;90.30;;;;;;5087821;28;20067;-58
2022/10/18 02:26:46;;;;;;;9.13;3.65;;;15.40;90.40;;;;;;5095036;28;20044;-59
2022/10/18 02:29:13;;;;;;;8.23;3.17;;;15.40;90.40;;;;;;5094179;28;20375;-60
2022/10/18 02:31:46;;;;;;;8.07;3.67;;;15.30;90.50;;;;;;5095174;28;20035;-60
2022/10/18 02:34:19;;;;;;;6.13;2.90;;;15.30;90.50;;;;;;5094081;28;21282;-60
2022/10/18 02:36:50;;;;;;;6.47;3.20;;;15.40;90.50;;;;;;5095804;28;20114;-60
2022/10/18 02:39:21;;;;;;;7.40;3.35;;;15.30;90.50;;;;;;5095870;28;20051;-60
2022/10/18 02:41:48;;;;;;;5.63;3.40;;;15.30;90.50;;;;;;5094897;28;20063;-60
2022/10/18 02:44:15;;;;;;;5.18;2.65;;;15.30;90.50;;;;;;5095154;28;20055;-60
2022/10/18 02:46:43;;;;;;;5.97;3.97;;;15.30;90.60;;;;;;5094671;28;20044;-60
2022/10/18 02:49:11;;;;;;;5.65;3.20;;;15.30;90.70;;;;;;5090073;28;20109;-59
2022/10/18 02:51:40;;;;;;;5.85;3.35;;;15.30;90.60;;;;;;5093153;28;20044;-60
2022/10/18 02:54:08;;;;;;;7.00;3.28;;;15.30;90.70;;;;;;5094217;28;20067;-59
2022/10/18 02:56:35;;;;;;;9.18;4.72;;;15.30;90.70;;;;;;5093652;28;20047;-59
2022/10/18 02:59:03;;;;;;;5.97;3.22;;;15.30;90.70;;;;;;5084027;28;20056;-60
2022/10/18 03:01:31;;;;;;;6.38;2.72;;;15.30;90.50;;;;;;5086625;28;20047;-60
2022/10/18 03:03:58;;;;;;;7.13;3.22;;;15.40;90.50;;;;;;5095681;28;20085;-59
2022/10/18 03:06:26;;;;;;;5.70;3.17;;;15.30;90.60;;;;;;5095591;28;20036;-59
2022/10/18 03:08:53;;;;;;;5.28;2.75;;;15.30;90.30;;;;;;5094142;28;20040;-61
2022/10/18 03:11:21;;;;;;;6.03;3.35;;;15.40;90.30;;;;;;5094765;28;20040;-61
2022/10/18 03:13:49;;;;;;;9.85;3.10;;;15.30;90.20;;;;;;5090621;28;20485;-59
2022/10/18 03:16:16;;;;;;;8.05;3.38;;;15.40;90.30;;;;;;5094064;28;20051;-59
2022/10/18 03:18:43;;;;;;;7.93;2.97;;;15.40;90.20;;;;;;5092505;28;20485;-59
2022/10/18 03:21:15;;;;;;;6.13;3.25;;;15.40;90.40;;;;;;5091403;28;20048;-59
2022/10/18 03:23:43;;;;;;;6.20;3.28;;;15.30;90.50;;;;;;5096694;28;20070;-61
2022/10/18 03:26:11;;;;;;;6.45;3.38;;;15.30;90.30;;;;;;5089451;28;20113;-60
2022/10/18 03:28:38;;;;;;;7.88;2.97;;;15.40;90.50;;;;;;5091605;28;20055;-59
2022/10/18 03:31:05;;;;;;;10.32;3.20;;;15.30;90.30;;;;;;5098062;28;20490;-59
2022/10/18 03:33:33;;;;;;;6.63;3.55;;;15.40;90.20;;;;;;5093912;28;20042;-60
2022/10/18 03:36:00;;;;;;;6.97;3.20;;;15.40;90.00;;;;;;5097757;28;20117;-60
2022/10/18 03:38:27;;;;;;;6.88;3.30;;;15.40;90.30;;;;;;5097560;27;20044;-59
2022/10/18 03:40:55;;;;;;;6.80;3.10;;;15.30;90.30;;;;;;5095569;28;20051;-60
2022/10/18 03:43:23;;;;;;;7.40;3.38;;;15.40;90.30;;;;;;5088948;27;20056;-60
2022/10/18 03:45:50;;;;;;;6.60;3.95;;;15.30;90.20;;;;;;5094759;28;20043;-59
2022/10/18 03:48:17;;;;;;;6.00;3.00;;;15.40;90.30;;;;;;5092482;28;20425;-59
2022/10/18 03:50:44;;;;;;;6.22;3.00;;;15.40;90.20;;;;;;5094466;28;20040;-60
2022/10/18 03:53:11;;;;;;;6.20;2.65;;;15.40;90.30;;;;;;5097821;28;20148;-60
2022/10/18 03:55:38;;;;;;;5.63;2.85;;;15.40;90.30;;;;;;5095780;28;20051;-60
2022/10/18 03:58:06;;;;;;;9.40;3.05;;;15.40;90.30;;;;;;5095969;28;20043;-60
2022/10/18 04:00:34;;;;;;;7.35;3.30;;;15.40;90.10;;;;;;5091183;28;20059;-59
2022/10/18 04:03:01;;;;;;;6.95;3.25;;;15.40;90.30;;;;;;5094882;28;20463;-61
2022/10/18 04:05:29;;;;;;;7.60;3.15;;;15.40;90.30;;;;;;5090885;28;20151;-60
2022/10/18 04:07:56;;;;;;;7.03;3.50;;;15.40;90.10;;;;;;5094061;28;20058;-59
2022/10/18 04:10:23;;;;;;;7.28;3.33;;;15.40;90.20;;;;;;5092782;28;20044;-60
2022/10/18 04:12:50;;;;;;;8.20;3.70;;;15.40;90.20;;;;;;5099092;28;20050;-60
2022/10/18 04:15:19;;;;;;;11.32;4.00;;;15.40;90.40;;;;;;5074056;28;20048;-60
2022/10/18 04:17:46;;;;;;;5.20;3.33;;;15.40;90.60;;;;;;5092554;28;20462;-59
2022/10/18 04:20:13;;;;;;;6.00;3.38;;;15.30;90.50;;;;;;5091317;28;20070;-59
2022/10/18 04:22:40;;;;;;;5.97;3.05;;;15.40;90.40;;;;;;5097703;28;20051;-60
2022/10/18 04:25:08;;;;;;;5.32;3.10;;;15.40;90.40;;;;;;5094142;28;20051;-59
2022/10/18 04:27:35;;;;;;;8.60;3.53;;;15.40;90.40;;;;;;5094801;28;20040;-60
2022/10/18 04:30:02;;;;;;;8.30;3.72;;;15.40;90.30;;;;;;5091388;28;20131;-59
2022/10/18 04:32:30;;;;;;;5.80;3.00;;;15.40;90.40;;;;;;5092738;28;20040;-59
2022/10/18 04:34:57;;;;;;;7.43;3.25;;;15.40;90.50;;;;;;5091738;28;20119;-60
2022/10/18 04:37:24;;;;;;;6.50;2.95;;;15.40;90.50;;;;;;5094715;28;20044;-61
2022/10/18 04:39:51;;;;;;;6.90;2.67;;;15.40;90.70;;;;;;5093337;28;20135;-61
2022/10/18 04:42:18;;;;;;;5.68;3.13;;;15.40;90.30;;;;;;5090430;28;20056;-60
2022/10/18 04:44:45;;;;;;;8.48;2.83;;;15.40;90.60;;;;;;5093610;28;20048;-60
2022/10/18 04:47:12;;;;;;;9.13;3.40;;;15.40;90.70;;;;;;5090674;28;20081;-60
2022/10/18 04:49:40;;;;;;;8.40;3.45;;;15.40;91.00;;;;;;5097687;28;20121;-60
2022/10/18 04:52:07;;;;;;;5.57;3.20;;;15.40;91.00;;;;;;5090118;28;20613;-60
2022/10/18 04:54:34;;;;;;;6.47;3.00;;;15.40;91.40;;;;;;5114098;28;20055;-60
2022/10/18 04:57:01;;;;;;;6.82;3.50;;;15.40;91.60;;;;;;5111779;28;20146;-60
2022/10/18 04:59:28;;;;;;;6.30;3.15;;;15.40;91.90;;;;;;5095376;28;20051;-59
2022/10/18 05:01:55;;;;;;;6.40;3.22;;;15.30;92.00;;;;;;5092776;28;20405;-60
2022/10/18 05:04:22;;;;;;;6.78;3.28;;;15.40;91.80;;;;;;5096455;28;20059;-60
2022/10/18 05:06:50;;;;;;;7.03;3.53;;;15.40;91.70;;;;;;5098933;28;20040;-60
2022/10/18 05:09:17;;;;;;;9.85;3.88;;;15.40;92.00;;;;;;5097732;28;20050;-60
2022/10/18 05:11:44;;;;;;;7.13;3.00;;;15.40;92.10;;;;;;5095775;28;20081;-59
2022/10/18 05:14:11;;;;;;;7.28;3.55;;;15.40;91.80;;;;;;5094752;28;20142;-60
2022/10/18 05:16:38;;;;;;;7.18;3.92;;;15.40;91.70;;;;;;5097730;28;20097;-60
2022/10/18 05:19:05;;;;;;;7.10;3.30;;;15.40;91.70;;;;;;5100390;28;20048;-59
2022/10/18 05:21:32;;;;;;;5.85;3.13;;;15.40;91.70;;;;;;5096537;28;20052;-59
2022/10/18 05:24:00;;;;;;;7.32;3.28;;;15.40;91.20;;;;;;5097573;28;20044;-60
2022/10/18 05:26:27;;;;;;;6.28;3.22;;;15.40;91.70;;;;;;5095301;28;20040;-60
2022/10/18 05:28:55;;;;;;;6.15;3.47;;;15.40;91.90;;;;;;5097699;28;20486;-59
2022/10/18 05:31:22;;;;;;;8.43;2.90;;;15.40;91.40;;;;;;5092939;28;20052;-62
2022/10/18 05:33:49;;;;;;;6.18;2.78;;;15.50;92.30;;;;;;5096885;28;20044;-60
2022/10/18 05:36:16;;;;;;;7.43;3.28;;;15.40;91.50;;;;;;5098792;28;20047;-59
2022/10/18 05:38:44;;;;;;;6.68;2.97;;;15.50;92.10;;;;;;5096600;27;20060;-60
2022/10/18 05:41:12;;;;;;;4.35;2.45;;;15.50;91.80;;;;;;5095886;27;20043;-59
2022/10/18 05:43:41;;;;;;;9.20;3.10;;;15.50;91.70;;;;;;5090132;28;20051;-59
2022/10/18 05:46:11;;;;;;;9.70;3.78;;;15.40;91.60;;;;;;5095534;28;20472;-59
2022/10/18 05:48:38;;;;;;;5.68;2.67;;;15.50;91.60;;;;;;5098880;28;20047;-60
2022/10/18 05:51:05;;;;;;;4.95;2.75;;;15.50;91.30;;;;;;5099594;28;20421;-60
2022/10/18 05:53:32;;;;;;;7.25;3.15;;;15.50;91.10;;;;;;5095112;27;20113;-60
2022/10/18 05:56:01;;;;;;;8.57;3.67;;;15.50;91.40;;;;;;5098567;28;20043;-60
2022/10/18 05:58:29;;;;;;;7.10;2.75;;;15.50;91.30;;;;;;5094494;28;20051;-59
2022/10/18 06:00:59;;;;;;;6.30;2.75;;;15.50;91.10;;;;;;5095715;28;20410;-59
2022/10/18 06:03:26;;;;;;;;;;;15.50;90.60;;;;;;5098057;28;20047;-59
2022/10/18 06:05:58;;;;;;;5.35;2.88;;;15.50;91.00;;;;;;5094460;27;19923;-59
2022/10/18 06:08:25;;;;;;;6.68;2.80;;;15.50;91.50;;;;;;5096369;28;20040;-59
2022/10/18 06:10:52;;;;;;;8.38;3.58;;;15.50;91.80;;;;;;5093499;28;20040;-61
2022/10/18 06:13:19;;;;;;;8.07;3.15;;;15.50;92.00;;;;;;5099358;28;20495;-59
2022/10/18 06:15:47;;;;;;;7.72;3.28;;;15.50;91.70;;;;;;5094533;28;20075;-60
2022/10/18 06:18:14;;;;;;;6.85;3.28;;;15.50;91.80;;;;;;5098680;28;20056;-60
2022/10/18 06:20:41;;;;;;;6.53;3.35;;;15.50;91.20;;;;;;5095199;28;20050;-59
2022/10/18 06:23:08;;;;;;;10.73;3.08;;;15.50;90.90;;;;;;5096899;28;20050;-60
2022/10/18 06:25:35;;;;;;;8.15;3.28;;;15.50;91.30;;;;;;5092436;28;20089;-62
2022/10/18 06:28:04;;;;;;;5.88;3.13;;;15.50;91.50;;;;;;5095276;28;20139;-61
2022/10/18 06:30:32;;;;;;;6.30;3.30;;;15.50;91.50;;;;;;5095899;28;20123;-59
2022/10/18 06:33:01;;;;;;;6.90;2.97;;;15.60;91.50;;;;;;5095048;28;20052;-60
2022/10/18 06:35:28;;;;;;;8.93;3.15;;;15.50;90.70;;;;;;5088798;28;20070;-59
2022/10/18 06:37:56;;;;;;;8.85;4.50;;;15.60;91.20;;;;;;5095580;28;20408;-59
2022/10/18 06:40:23;;;;;;;7.57;2.83;;;15.60;91.40;;;;;;5097864;28;20048;-60
2022/10/18 06:42:50;;;;;;;5.93;2.67;;;15.60;91.20;;;;;;5096013;28;20074;-59
2022/10/18 06:45:18;;;;;;;5.13;2.55;;;15.60;91.20;;;;;;5093101;27;20948;-60
2022/10/18 06:47:45;;;;;;;7.32;3.20;;;15.60;91.70;;;;;;5096848;28;20047;-59
2022/10/18 06:50:13;;;;;;;7.65;3.00;;;15.60;90.70;;;;;;5093130;28;20055;-60
2022/10/18 06:52:41;;;;;;;6.57;3.28;;;15.60;91.30;;;;;;5092022;28;20059;-60
2022/10/18 06:55:09;;;;;;;6.05;2.78;;;15.60;90.90;;;;;;5095127;27;20512;-60
2022/10/18 06:57:36;;;;;;;8.70;2.80;;;15.60;91.20;;;;;;5098380;28;20070;-60
2022/10/18 07:00:05;;;;;;;6.20;2.67;;;15.70;91.30;;;;;;5091436;28;20039;-60
2022/10/18 07:02:31;;;;;;;5.55;2.60;;;15.70;91.50;;;;;;5099126;28;20062;-60
2022/10/18 07:04:58;;;;;;;6.88;2.90;;;15.70;91.70;;;;;;5095425;28;20057;-60
2022/10/18 07:07:27;;;;;;;5.45;2.70;;;15.70;91.90;;;;;;5098155;27;20203;-60
2022/10/18 07:09:53;;;;;;;7.43;2.53;;;15.70;91.70;;;;;;5089192;28;20047;-60
2022/10/18 07:12:20;;;;;;;5.20;2.58;;;15.70;91.90;;;;;;5095024;28;20058;-60
2022/10/18 07:14:47;;;;;;;5.10;2.47;;;15.70;91.70;;;;;;5093589;28;20150;-61
2022/10/18 07:17:14;;;;;;;7.82;2.63;;;15.70;91.30;;;;;;5097297;27;20500;-59
2022/10/18 07:19:41;;;;;;;4.93;2.60;;;15.70;92.00;;;;;;5094743;27;20046;-60
2022/10/18 07:22:08;;;;;;;5.80;2.97;;;15.70;92.00;;;;;;5088774;28;20047;-60
2022/10/18 07:24:36;;;;;;;5.47;2.67;;;15.70;92.10;;;;;;5096442;28;20124;-60
2022/10/18 07:27:03;;;;;;;6.22;2.60;;;15.70;92.00;;;;;;5090661;27;20143;-59
2022/10/18 07:29:31;;;;;;;6.55;2.75;;;15.70;91.00;;;;;;5098146;28;20048;-60
2022/10/18 07:31:58;;;;;;;5.85;2.30;;;15.70;91.90;;;;;;5093883;27;20048;-60
2022/10/18 07:34:25;;;;;;;7.75;2.25;;;15.70;91.80;;;;;;5091332;28;20897;-59
2022/10/18 07:36:51;;;;;;;7.03;2.60;;;15.70;92.10;;;;;;5118576;28;20020;-59
2022/10/18 07:39:18;;;;;;;5.95;2.65;;;15.80;92.20;;;;;;5106493;28;20056;-60
2022/10/18 07:41:47;;;;;;;5.88;2.65;;;15.80;92.10;;;;;;5096306;28;20371;-60
2022/10/18 07:44:14;;;;;;;4.85;2.20;;;15.80;92.10;;;;;;5096627;28;20051;-59
2022/10/18 07:46:40;;;;;;;5.03;2.92;;;15.80;92.20;;;;;;5094364;28;20440;-60
2022/10/18 07:49:07;;;;;;;4.90;2.30;;;15.80;92.20;;;;;;5096746;28;20048;-60
2022/10/18 07:51:35;;;;;;;5.25;2.40;;;15.80;92.10;;;;;;5097732;28;20040;-60
2022/10/18 07:54:01;;;;;;;4.93;2.38;;;15.80;92.20;;;;;;5096576;28;20045;-61
2022/10/18 07:56:30;;;;;;;5.50;2.53;;;15.80;91.70;;;;;;5093275;28;20446;-59
2022/10/18 07:58:58;;;;;;;5.68;2.50;;;15.70;91.90;;;;;;5095893;28;20063;-59
2022/10/18 08:01:25;;;;;;;5.10;3.00;;;15.70;91.40;;;;;;5094097;28;20040;-64
2022/10/18 08:03:53;;;;;;;9.23;2.90;;;15.80;91.20;;;;;;5095175;28;20429;-64
2022/10/18 08:06:22;;;;;;;8.70;3.25;;;15.80;92.00;;;;;;5095779;28;20065;-64
2022/10/18 08:08:49;;;;;;;5.75;2.80;;;15.80;92.30;;;;;;5097385;27;20048;-63
2022/10/18 08:11:18;;;;;;;6.50;2.55;;;15.90;92.70;;;;;;5093742;28;20047;-66
2022/10/18 08:13:46;;;;;;;8.13;2.75;;;15.90;92.80;;;;;;5093671;28;20052;-63
2022/10/18 08:16:16;;;;;;;6.28;2.60;;;15.90;92.80;;;;;;5093613;28;20051;-64
2022/10/18 08:18:43;;;;;;;6.32;2.55;;;15.90;92.80;;;;;;5092393;28;20059;-64
2022/10/18 08:21:11;;;;;;;7.80;3.08;;;15.90;92.10;;;;;;5094978;28;20052;-64
2022/10/18 08:23:38;;;;;;;6.35;2.67;;;16.00;92.80;;;;;;5090701;28;20054;-64
2022/10/18 08:26:07;;;;;;;8.00;2.90;;;16.00;92.80;;;;;;5091538;28;20059;-63
2022/10/18 08:28:35;;;;;;;7.93;3.60;;;16.00;92.70;;;;;;5095891;28;20054;-64
2022/10/18 08:31:03;;;;;;;10.25;3.25;;;16.00;92.60;;;;;;5092430;28;20044;-64
2022/10/18 08:33:32;;;;;;;10.48;3.47;;;16.00;92.60;;;;;;5094109;28;20474;-63
2022/10/18 08:36:01;;;;;;;5.03;2.92;;;16.00;92.20;;;;;;5096438;28;20036;-64
2022/10/18 08:38:31;;;;;;;8.05;3.40;;;16.10;92.80;;;;;;5094085;28;20192;-64
2022/10/18 08:40:59;;;;;;;10.55;3.45;;;16.10;92.90;;;;;;5093773;28;20398;-64
2022/10/18 08:43:34;;;;;;;7.50;3.30;;;16.20;93.10;;;;;;5093850;28;20075;-63
2022/10/18 08:46:01;;;;;;;6.57;3.45;;;16.20;92.40;;;;;;5088492;28;20051;-64
2022/10/18 08:48:36;;;;;;;8.07;3.25;;;16.20;92.80;;;;;;5097626;28;20051;-64
2022/10/18 08:51:06;;;;;;;6.53;2.67;;;16.30;92.90;;;;;;5097316;28;20063;-63
2022/10/18 08:53:44;;;;;;;5.78;2.80;;;16.30;92.90;;;;;;5093946;28;20730;-64
2022/10/18 08:56:13;;;;;;;7.85;2.60;;;16.30;93.00;;;;;;5097411;28;20055;-64
2022/10/18 08:58:42;;;;;;;6.80;2.65;;;16.40;92.60;;;;;;5098903;28;20044;-64
2022/10/18 09:01:20;;;;;;;5.30;2.35;;;16.40;93.00;;;;;;5099013;28;20070;-63
2022/10/18 09:04:23;;;;;;;5.57;2.30;;;16.50;92.90;;;;;;5097799;28;20446;-64
2022/10/18 09:07:03;;;;;;;5.50;1.85;;;16.60;92.70;;;;;;5096449;28;20044;-64
2022/10/18 09:09:35;;;;;;;;;;;16.60;92.90;;;;;;5097594;28;20039;-64
2022/10/18 09:12:16;;;;;;;4.28;1.98;;;16.60;92.70;;;;;;5096979;28;20002;-61
2022/10/18 09:15:07;;;;;;;4.30;1.80;;;16.60;92.70;;;;;;5098306;28;20052;-64
2022/10/18 09:17:42;;;;;;;4.18;1.65;;;16.70;92.80;;;;;;5098111;28;20119;-65
2022/10/18 09:20:21;;;;;;;2.80;1.80;;;16.70;92.70;;;;;;5092494;28;20048;-63
2022/10/18 09:22:53;;;;;;;3.75;1.58;;;16.70;92.70;;;;;;5098524;28;20062;-65
2022/10/18 09:25:22;;;;;;;3.03;1.40;;;16.70;92.50;;;;;;5095323;28;20040;-64
2022/10/18 09:27:55;;;;;;;1.88;1.27;;;16.70;92.50;;;;;;5099080;28;20135;-64
2022/10/18 09:30:43;;;;;;;2.28;1.25;;;16.70;92.60;;;;;;5096637;27;20117;-63
2022/10/18 09:33:33;;;;;;;3.78;1.30;;;16.80;92.60;;;;;;5096227;27;20055;-65
2022/10/18 09:36:05;;;;;;;2.35;1.15;;;16.80;92.60;;;;;;5099545;28;21107;-64
2022/10/18 09:38:42;;;;;;;2.72;1.35;;;16.80;92.60;;;;;;5098694;28;20443;-63
2022/10/18 09:41:15;;;;;;;3.42;1.25;;;16.80;92.10;;;;;;5098324;28;20064;-64
2022/10/18 09:43:50;;;;;;;2.85;1.30;;;16.90;92.30;;;;;;5097537;28;20051;-64
2022/10/18 09:46:20;;;;;;;3.53;1.33;;;16.90;92.30;;;;;;5095634;27;20067;-64
2022/10/18 09:48:49;;;;;;;;;;;16.90;92.50;;;;;;5101310;28;20051;-64
2022/10/18 09:51:21;;;;;;;3.60;1.10;;;16.90;92.30;;;;;;5096128;28;19924;-64
2022/10/18 09:54:15;;;;;;;2.85;1.20;;;17.00;92.20;;;;;;5099446;28;20040;-64
2022/10/18 09:56:46;;;;;;;3.97;1.50;;;17.10;92.00;;;;;;5095968;28;20054;-63
2022/10/18 09:59:38;;;;;;;2.45;1.33;;;17.20;92.00;;;;;;5094996;28;20040;-64
2022/10/18 10:02:06;;;;;;;4.28;1.38;;;17.20;92.00;;;;;;5095997;28;20044;-64
2022/10/18 10:04:34;;;;;;;2.05;1.30;;;17.20;92.00;;;;;;5096485;28;20048;-64
2022/10/18 10:07:07;;;;;;;2.95;1.17;;;17.20;91.80;;;;;;5100078;28;20405;-64
2022/10/18 10:09:40;;;;;;;1.60;1.00;;;17.20;91.80;;;;;;5097845;28;20093;-65
2022/10/18 10:12:25;;;;;;;3.15;1.40;;;17.20;91.90;;;;;;5091621;27;20512;-67
2022/10/18 10:14:55;;;;;;;2.28;1.33;;;17.20;92.00;;;;;;5099398;28;20259;-64
2022/10/18 10:17:25;;;;;;;4.18;1.23;;;17.20;91.90;;;;;;5112008;28;20068;-64
2022/10/18 10:19:58;;;;;;;2.70;1.35;;;17.20;92.00;;;;;;5108892;28;20176;-64
2022/10/18 10:22:37;;;;;;;3.08;1.25;;;17.20;91.90;;;;;;5096901;28;20131;-64
2022/10/18 10:25:06;;;;;;;5.77;1.50;;;17.30;91.80;;;;;;5098964;28;20073;-64
2022/10/18 10:27:39;;;;;;;4.60;2.03;;;17.30;91.80;;;;;;5100468;28;20048;-65
2022/10/18 10:30:23;;;;;;;3.78;1.58;;;17.30;91.80;;;;;;5096151;28;20073;-64
2022/10/18 10:32:54;;;;;;;2.97;1.45;;;17.40;91.70;;;;;;5097300;28;20044;-64
2022/10/18 10:35:30;;;;;;;3.47;1.40;;;17.30;91.60;;;;;;5097168;28;20117;-64
2022/10/18 10:37:58;;;;;;;3.30;1.42;;;17.30;91.70;;;;;;5099604;28;20048;-63
2022/10/18 10:40:27;;;;;;;3.15;1.48;;;17.30;91.70;;;;;;5096357;28;20134;-64
2022/10/18 10:43:06;;;;;;;3.10;1.40;;;17.30;91.60;;;;;;5089081;28;20056;-65
2022/10/18 10:45:37;;;;;;;3.50;1.20;;;17.30;91.70;;;;;;5093299;27;20052;-64
2022/10/18 10:48:14;;;;;;;3.03;0.90;;;17.30;91.60;;;;;;5091977;28;20560;-64
2022/10/18 10:50:52;;;;;;;2.25;1.10;;;17.30;91.70;;;;;;5098536;28;20127;-64
2022/10/18 10:53:34;;;;;;;2.13;1.00;;;17.30;91.80;;;;;;5095052;27;20135;-62
2022/10/18 10:56:03;;;;;;;2.58;0.95;;;17.30;91.80;;;;;;5097959;28;20050;-65
2022/10/18 10:58:35;;;;;;;2.92;1.30;;;17.30;91.80;;;;;;5097232;28;20055;-64
2022/10/18 11:01:21;;;;;;;3.03;1.20;;;17.40;91.70;;;;;;5093812;28;20050;-64
2022/10/18 11:03:50;;;;;;;1.70;1.02;;;17.50;91.60;;;;;;5091260;28;20048;-64
2022/10/18 11:06:48;;;;;;;3.83;1.13;;;17.60;91.30;;;;;;5094815;28;20050;-64
2022/10/18 11:09:26;;;;;;;2.53;1.00;;;17.70;91.20;;;;;;5096864;27;20044;-65
2022/10/18 11:12:02;;;;;;;2.10;1.08;;;17.70;91.10;;;;;;5092131;28;20138;-64
2022/10/18 11:14:36;;;;;;;2.90;1.20;;;17.80;91.30;;;;;;5097140;28;20072;-64
2022/10/18 11:17:12;;;;;;;4.25;1.00;;;17.70;91.20;;;;;;5097234;28;20133;-63
2022/10/18 11:19:47;;;;;;;2.10;1.02;;;17.70;91.20;;;;;;5093547;28;20059;-64
2022/10/18 11:22:19;;;;;;;2.28;0.90;;;17.70;91.20;;;;;;5091810;28;20109;-65
2022/10/18 11:24:47;;;;;;;3.22;1.30;;;17.60;91.20;;;;;;5097609;28;20056;-66
2022/10/18 11:27:21;;;;;;;2.47;1.10;;;17.60;91.30;;;;;;5095104;28;20162;-65
2022/10/18 11:30:14;;;;;;;2.90;1.25;;;17.70;91.40;;;;;;5092592;28;20048;-63
2022/10/18 11:32:50;;;;;;;3.55;1.45;;;17.70;91.40;;;;;;5091567;27;20106;-65
2022/10/18 11:35:30;;;;;;;3.45;0.98;;;17.70;91.40;;;;;;5096010;28;20048;-64
2022/10/18 11:38:08;;;;;;;3.30;1.05;;;17.70;91.40;;;;;;5095797;27;20048;-64
2022/10/18 11:41:15;;;;;;;2.88;0.90;;;17.70;91.40;;;;;;5091155;28;20063;-64
2022/10/18 11:43:50;;;;;;;1.60;0.68;;;17.70;91.50;;;;;;5096766;28;20499;-63
2022/10/18 11:46:26;;;;;;;4.10;1.00;;;17.80;91.80;;;;;;5088788;28;20047;-63
2022/10/18 11:49:10;;;;;;;1.88;0.90;;;17.80;91.80;;;;;;5096552;28;20054;-64
2022/10/18 11:51:49;;;;;;;2.42;0.93;;;17.70;91.70;;;;;;5096752;28;20050;-63
2022/10/18 11:54:30;;;;;;;2.17;0.80;;;17.80;91.70;;;;;;5091022;28;20127;-64
2022/10/18 11:57:08;;;;;;;1.08;0.50;;;17.80;91.80;;;;;;5097762;28;20071;-64
2022/10/18 11:59:41;;;;;;;2.40;0.68;;;17.90;91.70;;;;;;5092836;28;20072;-64
2022/10/18 12:02:38;;;;;;;1.50;0.65;;;18.00;91.60;;;;;;5095675;28;20044;-63
2022/10/18 12:05:11;;;;;;;1.77;0.60;;;18.10;91.40;;;;;;5094820;28;20122;-63
2022/10/18 12:07:47;;;;;;;2.42;0.60;;;18.10;91.20;;;;;;5092142;28;20408;-62
2022/10/18 12:10:18;;;;;;;1.80;0.50;;;18.10;91.10;;;;;;5091584;28;20138;-63
2022/10/18 12:12:55;;;;;;;1.80;0.82;;;18.10;91.00;;;;;;5085322;28;20115;-64
2022/10/18 12:15:24;;;;;;;1.40;0.47;;;18.10;90.90;;;;;;5094025;28;20071;-63
2022/10/18 12:17:54;;;;;;;1.52;0.50;;;18.10;90.90;;;;;;5094197;28;20228;-63
2022/10/18 12:20:27;;;;;;;1.58;0.60;;;18.10;90.80;;;;;;5094760;28;20044;-64
2022/10/18 12:23:00;;;;;;;1.77;0.60;;;18.10;90.80;;;;;;5087614;28;20040;-63
2022/10/18 12:25:29;;;;;;;2.95;0.60;;;18.10;90.70;;;;;;5091856;28;20147;-64
2022/10/18 12:28:07;;;;;;;2.03;0.60;;;18.10;90.80;;;;;;5092538;28;20048;-64
2022/10/18 12:30:42;;;;;;;2.83;0.80;;;18.10;90.90;;;;;;5092513;28;20050;-64
2022/10/18 12:33:13;;;;;;;1.45;0.60;;;18.10;91.10;;;;;;5093059;28;20143;-63
2022/10/18 12:35:51;;;;;;;1.33;0.60;;;18.10;91.00;;;;;;5094632;28;20048;-63
2022/10/18 12:38:24;;;;;;;2.03;0.77;;;18.10;91.10;;;;;;5093427;28;20066;-63
2022/10/18 12:40:53;;;;;;;1.45;0.47;;;18.10;90.90;;;;;;5094696;28;20079;-64
2022/10/18 12:43:25;;;;;;;1.95;0.60;;;18.10;90.80;;;;;;5094225;28;20068;-64
2022/10/18 12:45:54;;;;;;;1.27;0.57;;;18.20;90.70;;;;;;5087700;28;20071;-64
2022/10/18 12:48:31;;;;;;;2.78;0.50;;;18.20;90.70;;;;;;5094242;28;20135;-64
2022/10/18 12:51:03;;;;;;;0.93;0.55;;;18.20;90.40;;;;;;5094987;28;20048;-64
2022/10/18 12:53:31;;;;;;;0.98;0.35;;;18.30;90.40;;;;;;5095156;28;20044;-65
2022/10/18 12:56:36;;;;;;;0.95;0.50;;;18.40;90.30;;;;;;5096678;28;20096;-64
2022/10/18 12:59:49;;;;;;;1.10;0.52;;;18.40;90.20;;;;;;5113286;28;20098;-63
2022/10/18 13:02:27;;;;;;;1.52;0.50;;;18.50;90.10;;;;;;5099239;28;20047;-65
2022/10/18 13:04:55;;;;;;;0.63;0.30;;;18.50;90.10;;;;;;5095792;28;20044;-64
2022/10/18 13:07:43;;;;;;;2.13;0.70;;;18.50;90.00;;;;;;5094081;28;20052;-64
2022/10/18 13:10:41;;;;;;;4.47;0.68;;;18.40;90.10;;;;;;5093236;28;20048;-63